Amunt
Inicio > meteoXarxa
Fes-te'n soci

METEOXARXA

la Serra d′en Galceran
Ubicació
Comarca la Plana Alta
Altitud (msnm) 748
Posició geogràfica 40° 16' 10.38" N, 00° 1' 7.77" W
Model Davis Vantage Pro
Presa de dades
Font de les dades Universitat Jaume I de Castelló
Estadístiques. Resum
Data Temperatura (ºC) Humitat (%) Pressió (hPa) Vent (km/h) Precipit. (mm)
Mínima Mitjana Màxima Mínima Mitjana Màxima Mínima Mitjana Màxima Predom. Mitjana Ràfega màxima Total Dies de pluja
Mínima Mitjana Màxima Mínima Mitjana Màxima
Últimes dades diàries
25-03-2017 5,2     7,9     11,9 N 10,1 46,7 0,0  
24-03-2017 3,9     5,9     8,0 N 6,9 29,0 0,0  
23-03-2017 3,8     6,8     9,6 N 10,3 45,1 0,0  
22-03-2017 9,1     10,8     13,3 N 10,3 35,4 0,0  
21-03-2017 9,8     12,5     15,2 N 4,2 30,6 0,0  
20-03-2017 12,3     14,7     17,3 N 2,4 19,3 0,0  
19-03-2017 13,0     14,9     17,4 N 4,5 19,3 0,0  
18-03-2017 11,6     15,1     18,8 N 3,4 17,7 0,0  
17-03-2017 9,1     11,5     15,1 N 3,2 19,3 0,0  
16-03-2017 8,1     11,6     14,5 N 5,3 24,1 0,0  
15-03-2017 8,3     10,6     13,7 N 3,4 24,1 0,0  
14-03-2017 6,9     10,1     14,8 N 6,8 38,6 0,0  
13-03-2017 3,1     6,5     8,9 N 17,4 69,2 10,4  
12-03-2017 4,6     12,1     18,6 N 21,6 69,2 2,5  
11-03-2017 14,9     18,6     22,1 N 3,7 17,7 0,0  
10-03-2017 14,8     19,7     22,9 N 7,2 37,0 0,0  
09-03-2017 16,4     20,6     24,1 N 8,5 33,8 0,0  
08-03-2017 11,1     14,2     18,6 N 13,8 70,8 0,0  
07-03-2017 9,9     13,6     17,4 N 26,6 82,1 0,0  
06-03-2017 11,6     13,9     17,4 N 17,4 70,8 0,0  
05-03-2017 6,3     10,3     13,2 N 7,2 46,7 0,0  
04-03-2017 4,3     6,7     10,9 N 19,3 96,6 0,0  
03-03-2017 4,3     7,7     11,1 N 8,7 72,4 6,9  
02-03-2017 9,2     11,5     13,8 N 7,4 37,0 0,0  
28-02-2017 6,1     10,9     14,1 N 10,8 67,6 0,0  
27-02-2017 8,1     11,1     13,1 N 6,1 40,2 0,0  
26-02-2017 4,7     8,2     11,6 N 5,0 20,9 0,0  
25-02-2017 5,0     6,9     10,2 N 8,0 33,8 0,0  
24-02-2017 5,3     8,8     11,6 N 18,2 64,4 0,8  
23-02-2017 9,6     12,6     16,1 N 4,0 27,4 0,0  
22-02-2017 10,2     12,4     14,8 N 4,3 20,9 0,0  
21-02-2017 8,2     10,8     14,4 N 3,4 17,7 0,0  
Dades del mes en curs (actualitzades fins l'últim dia disponible)
03/2017 3,1 8,8 16,4 12,0 8,0 15,4 24,1   9,6 96,6 19,8  
Últimes dades mensuals
02/2017 2,7 6,2 10,2 8,9 6,6 11,8 16,1 11,5 146,5 10,1 8
01/2017 -3,7 4,1 10,3 6,3 2,3 9,1 16,1 15,4 115,9 136,5 7
12/2016 3,2 7,1 10,1 9,1 5,8 11,3 17,2 7,1 66,0 0,3 1
11/2016 3,6 8,0 13,5 10,5 7,5 13,1 19,4 11,0 86,9 56,1 11
10/2016 10,2 13,6 17,2 15,7 12,7 18,5 23,3 4,2 51,5 40,8 10
09/2016 11,9 16,6 26,8 19,3 17,7 22,6 33,7 7,3 72,4 32,9 5
08/2016 14,8 17,9 20,1 21,2 20,3 24,9 27,9 5,6 59,5 35,1 5
07/2016 12,8 18,8 23,4 22,2 20,9 25,9 30,8 6,8 67,6 0,9 3
06/2016 10,8 16,0 20,7 19,3 18,5 22,9 26,7 7,9 69,2 1,8 4
03/2016 2,2 5,6 12,2 8,4 5,3 11,6 17,9 15,2 95,0 54,5 12
02/2016 -0,4 5,9 13,2 8,7 5,0 12,2 18,9 16,1 115,9 9,1 8
01/2016 1,3 6,6 11,5 9,3 5,0 12,2 17,1 11,6 95,0 4,0 6
12/2015 5,8 8,9 14,6 11,0 9,6 13,5 17,7 4,0 37,0 0,9 3
Dades de l'any en curs (actualitzades fins l'últim dia disponible)
2017 -3,7 6,2 16,4 8,8 2,3 11,8 24,1   12,4 146,5 166,4  
Últimes dades anuals